KBQP

Morehouse Memorial Airport

Bastrop, Louisiana, USA

KBQP 110855Z AUTO 25003KT 10SM CLR 06/00 A3024 RMK AO2 T00570000

Observed Flight Rules
Dec-11 @ 08:55 UTC (22 minutes ago) Visual Flight Rules
Wind Visibility Clouds
250° at 3 knots 10 miles
  • Clear skies
Temperatures Readings
Current 6°C / 43°F
Dewpoint 0°C / 32°F
Humidity 66%
Altimeter 30.24" Hg
Pressure 1024 hPa
Elevation 51
Observed Flight Rules
Dec-11 @ 08:55 UTC
(22 minutes ago)
VFR
Wind Visibility
250° at 3 knots 10 miles
Clouds
  • Clear skies
Temperature Dewpoint
6°C / 43°F 0°C / 32°F
Humidity Altimeter Pressure
66% 30.24" Hg 1024 hPa